Time;durP1;ratioP1;P1;durP2;ratioP2;P2;SDS_P1;SDS_P2;PMS_P1;PMS_P2;Temp;Humidity;BMP_temperature;BMP_pressure;BME280_temperature;BME280_humidity;BME280_pressure;Samples;Min_cycle;Max_cycle;Signal;HPM_P1;HPM_P2
2022/05/14 00:00:43;;;;;;;2.97;1.02;;;21.90;43.40;21.00;101568.00;;;;5025509;28;20724;-72
2022/05/14 00:03:31;;;;;;;2.45;1.20;;;21.90;43.50;21.00;101566.00;;;;5041139;28;20068;-72
2022/05/14 00:06:39;;;;;;;2.75;1.20;;;21.90;43.40;21.00;101558.00;;;;5041695;28;20470;-72
2022/05/14 00:09:25;;;;;;;2.85;1.40;;;21.90;43.50;21.00;101556.00;;;;5030661;28;20072;-72
2022/05/14 00:15:16;;;;;;;6.50;1.20;;;21.80;43.40;21.00;101547.00;;;;5039650;28;20121;-72
2022/05/14 00:18:04;;;;;;;3.58;1.40;;;21.80;43.40;20.90;101548.00;;;;5030502;28;20428;-72
2022/05/14 00:20:51;;;;;;;3.28;1.33;;;21.80;43.30;20.90;101554.00;;;;5012504;28;20419;-72
2022/05/14 00:23:37;;;;;;;3.05;1.13;;;21.80;43.40;20.90;101552.00;;;;5026970;28;20441;-71
2022/05/14 00:26:23;;;;;;;3.05;0.98;;;21.80;43.40;20.90;101552.00;;;;5044546;28;20044;-72
2022/05/14 00:29:09;;;;;;;3.92;1.30;;;21.80;43.40;20.90;101544.00;;;;5042309;28;20103;-71
2022/05/14 00:31:55;;;;;;;1.50;0.80;;;21.80;43.50;20.90;101549.00;;;;5024471;28;20048;-72
2022/05/14 00:34:41;;;;;;;3.60;0.95;;;21.80;43.40;20.90;101543.00;;;;5044003;28;20405;-72
2022/05/14 00:37:27;;;;;;;2.40;0.98;;;21.80;43.50;20.90;101549.00;;;;5043723;28;20037;-72
2022/05/14 00:40:25;;;;;;;3.58;1.13;;;21.80;43.60;20.90;101550.00;;;;5040770;28;20061;-72
2022/05/14 00:43:11;;;;;;;3.60;1.20;;;21.80;43.50;20.90;101541.00;;;;5027865;28;20038;-72
2022/05/14 00:46:13;;;;;;;3.03;1.20;;;21.80;43.50;20.90;101551.00;;;;5045057;28;20040;-72
2022/05/14 00:48:59;;;;;;;3.95;1.48;;;21.80;43.50;20.90;101550.00;;;;5017282;28;20033;-72
2022/05/14 00:51:46;;;;;;;3.08;1.30;;;21.80;43.40;20.90;101552.00;;;;5015552;28;20048;-72
2022/05/14 00:54:49;;;;;;;2.65;1.02;;;21.80;43.40;20.90;101554.00;;;;5042725;28;20037;-72
2022/05/14 00:57:38;;;;;;;3.28;1.13;;;21.80;43.40;20.90;101554.00;;;;5024435;28;20391;-72
2022/05/14 01:00:24;;;;;;;3.80;1.27;;;21.80;43.30;20.90;101553.00;;;;5029501;28;20041;-72
2022/05/14 01:03:10;;;;;;;6.55;1.30;;;21.80;43.50;20.90;101565.00;;;;5045372;28;20105;-72
2022/05/14 01:05:57;;;;;;;1.50;0.95;;;21.80;43.40;20.90;101561.00;;;;5043252;28;20029;-72
2022/05/14 01:08:43;;;;;;;2.42;1.15;;;21.70;43.20;20.90;101559.00;;;;5028844;28;20044;-72
2022/05/14 01:11:29;;;;;;;4.65;1.45;;;21.80;43.20;20.90;101555.00;;;;5016447;28;20037;-72
2022/05/14 01:14:15;;;;;;;2.83;1.20;;;21.70;43.20;20.90;101554.00;;;;5012075;28;20033;-72
2022/05/14 01:17:02;;;;;;;3.63;1.30;;;21.70;43.20;20.90;101551.00;;;;5014919;28;20421;-72
2022/05/14 01:19:48;;;;;;;3.33;1.10;;;21.70;43.20;20.90;101554.00;;;;5044647;28;20119;-72
2022/05/14 01:23:04;;;;;;;3.53;1.10;;;21.70;43.10;20.90;101555.00;;;;5027525;28;20470;-72
2022/05/14 01:26:28;;;;;;;2.22;1.02;;;21.70;43.10;20.80;101561.00;;;;5004301;28;20397;-72
2022/05/14 01:29:20;;;;;;;3.83;1.30;;;21.70;43.20;20.80;101554.00;;;;5029889;28;20044;-72
2022/05/14 01:32:06;;;;;;;3.80;1.30;;;21.70;43.20;20.80;101552.00;;;;5025986;28;20041;-72
2022/05/14 01:34:53;;;;;;;3.22;1.48;;;21.70;43.10;20.80;101552.00;;;;5025538;28;20037;-72
2022/05/14 01:37:40;;;;;;;1.77;0.97;;;21.70;43.10;20.80;101544.00;;;;5039035;28;20068;-72
2022/05/14 01:40:26;;;;;;;3.22;1.10;;;21.70;43.10;20.80;101552.00;;;;5042057;28;20283;-72
2022/05/14 01:43:12;;;;;;;3.80;1.15;;;21.70;43.20;20.80;101543.00;;;;5041217;28;20033;-72
2022/05/14 01:45:58;;;;;;;3.35;1.20;;;21.70;43.40;20.80;101548.00;;;;5023009;28;20128;-72
2022/05/14 01:48:44;;;;;;;5.90;1.17;;;21.60;43.10;20.80;101541.00;;;;5023850;28;20053;-72
2022/05/14 01:51:30;;;;;;;3.70;1.20;;;21.70;43.20;20.80;101534.00;;;;5026207;28;20041;-72
2022/05/14 01:54:16;;;;;;;5.50;1.63;;;21.70;43.30;20.80;101535.00;;;;5024789;28;20110;-72
2022/05/14 01:57:03;;;;;;;1.60;0.85;;;21.60;43.20;20.80;101535.00;;;;5038609;28;20064;-72
2022/05/14 01:59:49;;;;;;;3.85;1.05;;;21.60;43.20;20.80;101534.00;;;;5036817;28;20469;-72
2022/05/14 02:02:35;;;;;;;3.10;1.23;;;21.60;43.30;20.80;101543.00;;;;5040285;28;20095;-72
2022/05/14 02:05:21;;;;;;;2.50;0.77;;;21.70;43.40;20.80;101538.00;;;;5020955;28;20052;-72
2022/05/14 02:08:07;;;;;;;4.45;1.33;;;21.70;43.40;20.80;101535.00;;;;5036833;28;20127;-72
2022/05/14 02:10:53;;;;;;;4.13;0.98;;;21.60;43.50;20.80;101538.00;;;;5020832;28;20407;-72
2022/05/14 02:13:40;;;;;;;4.15;1.00;;;21.60;43.40;20.80;101533.00;;;;5039741;28;20040;-72
2022/05/14 02:16:26;;;;;;;4.80;1.52;;;21.60;43.40;20.80;101533.00;;;;5015928;28;20044;-72
2022/05/14 02:19:12;;;;;;;4.13;1.30;;;21.60;43.50;20.80;101532.00;;;;5017424;28;20045;-72
2022/05/14 02:21:58;;;;;;;3.95;1.17;;;21.60;43.50;20.80;101540.00;;;;5037037;28;20432;-72
2022/05/14 02:24:44;;;;;;;6.35;1.08;;;21.60;43.50;20.80;101534.00;;;;5035263;28;20357;-72
2022/05/14 02:27:30;;;;;;;3.35;1.88;;;21.70;43.60;20.80;101554.00;;;;5031974;28;20561;-72
2022/05/14 02:30:16;;;;;;;6.20;1.38;;;21.60;43.70;20.80;101564.00;;;;5031332;28;20048;-72
2022/05/14 02:33:02;;;;;;;3.42;1.17;;;21.60;43.70;20.80;101540.00;;;;5029449;28;20511;-72
2022/05/14 02:35:48;;;;;;;1.38;0.70;;;21.60;43.70;20.80;101548.00;;;;5032865;28;20571;-72
2022/05/14 02:38:36;;;;;;;3.30;1.00;;;21.60;43.80;20.80;101559.00;;;;5038412;28;20048;-72
2022/05/14 02:41:22;;;;;;;5.30;1.40;;;21.60;44.00;20.80;101557.00;;;;5024928;28;20048;-72
2022/05/14 02:44:08;;;;;;;3.75;1.10;;;21.60;43.90;20.80;101565.00;;;;5033210;28;20136;-72
2022/05/14 02:46:54;;;;;;;2.00;1.20;;;21.60;44.00;20.80;101574.00;;;;5039892;28;21007;-72
2022/05/14 02:49:40;;;;;;;5.43;1.38;;;21.60;43.90;20.70;101568.00;;;;5021086;28;20049;-72
2022/05/14 02:52:26;;;;;;;4.30;1.92;;;21.60;43.90;20.70;101562.00;;;;5018447;28;20128;-72
2022/05/14 02:55:13;;;;;;;4.95;1.20;;;21.60;44.00;20.70;101576.00;;;;5036096;28;20545;-72
2022/05/14 02:57:59;;;;;;;5.20;1.30;;;21.60;43.90;20.70;101564.00;;;;5033572;28;20037;-72
2022/05/14 03:00:45;;;;;;;2.50;1.10;;;21.60;44.00;20.70;101573.00;;;;5035217;28;20049;-72
2022/05/14 03:03:31;;;;;;;5.05;1.40;;;21.60;43.90;20.70;101569.00;;;;5037390;28;20055;-72
2022/05/14 03:06:18;;;;;;;4.93;1.40;;;21.60;44.00;20.70;101568.00;;;;5009841;28;20064;-72
2022/05/14 03:09:04;;;;;;;5.57;1.55;;;21.50;44.00;20.70;101577.00;;;;5035189;28;20506;-72
2022/05/14 03:11:50;;;;;;;1.98;1.10;;;21.60;44.00;20.70;101567.00;;;;5036792;28;20048;-72
2022/05/14 03:14:36;;;;;;;2.75;0.93;;;21.50;44.00;20.70;101563.00;;;;5022805;28;20510;-72
2022/05/14 03:17:22;;;;;;;2.90;1.33;;;21.50;44.10;20.70;101562.00;;;;5023467;28;20045;-72
2022/05/14 03:20:11;;;;;;;4.72;1.23;;;21.50;43.90;20.70;101561.00;;;;5021339;28;20474;-72
2022/05/14 03:22:57;;;;;;;4.22;1.00;;;21.50;44.10;20.70;101557.00;;;;5024944;28;20127;-72
2022/05/14 03:25:43;;;;;;;4.07;1.20;;;21.50;44.00;20.70;101555.00;;;;5020056;28;20049;-72
2022/05/14 03:28:29;;;;;;;2.25;0.93;;;21.50;44.00;20.70;101573.00;;;;5046490;28;20398;-72
2022/05/14 03:31:15;;;;;;;4.10;1.58;;;21.50;44.20;20.70;101575.00;;;;5041121;28;20479;-72
2022/05/14 03:34:01;;;;;;;6.15;1.73;;;21.50;44.20;20.70;101571.00;;;;5022922;28;20045;-72
2022/05/14 03:36:47;;;;;;;4.13;1.20;;;21.50;44.20;20.70;101554.00;;;;5028713;28;20072;-72
2022/05/14 03:39:33;;;;;;;4.70;1.45;;;21.50;44.20;20.70;101554.00;;;;5039257;28;20068;-72
2022/05/14 03:42:19;;;;;;;4.35;1.23;;;21.50;44.10;20.70;101563.00;;;;5037051;28;20041;-72
2022/05/14 03:45:07;;;;;;;3.75;1.25;;;21.50;44.10;20.70;101561.00;;;;5035332;28;20041;-72
2022/05/14 03:47:53;;;;;;;4.25;1.45;;;21.50;44.20;20.70;101559.00;;;;5040810;28;20041;-72
2022/05/14 03:50:39;;;;;;;1.73;1.15;;;21.50;44.20;20.70;101563.00;;;;5037106;28;20068;-72
2022/05/14 03:53:25;;;;;;;4.18;1.13;;;21.50;44.30;20.70;101571.00;;;;5038827;28;20475;-71
2022/05/14 03:56:11;;;;;;;6.05;1.45;;;21.50;44.30;20.60;101578.00;;;;5043430;28;20041;-72
2022/05/14 03:58:57;;;;;;;2.40;1.10;;;21.50;44.20;20.60;101585.00;;;;5036210;28;20049;-72
2022/05/14 04:01:44;;;;;;;3.63;1.58;;;21.50;44.30;20.60;101574.00;;;;5040444;28;20045;-72
2022/05/14 04:04:31;;;;;;;4.95;1.45;;;21.50;44.40;20.60;101573.00;;;;5047125;28;20498;-72
2022/05/14 04:07:17;;;;;;;2.85;1.30;;;21.40;44.30;20.60;101576.00;;;;5023527;28;20045;-72
2022/05/14 04:10:04;;;;;;;6.60;1.60;;;21.50;44.40;20.60;101572.00;;;;5041777;28;20048;-72
2022/05/14 04:12:50;;;;;;;4.00;1.15;;;21.40;44.40;20.60;101572.00;;;;5037634;28;20058;-72
2022/05/14 04:15:36;;;;;;;5.22;1.52;;;21.50;44.40;20.60;101580.00;;;;5038232;28;20572;-72
2022/05/14 04:18:25;;;;;;;3.72;1.30;;;21.50;44.50;20.60;101579.00;;;;5039556;28;20042;-72
2022/05/14 04:21:11;;;;;;;2.17;0.93;;;21.50;44.40;20.60;101582.00;;;;5026540;28;20152;-72
2022/05/14 04:23:57;;;;;;;3.33;1.15;;;21.50;44.50;20.60;101588.00;;;;5029550;28;20403;-71
2022/05/14 04:26:43;;;;;;;4.15;1.52;;;21.40;44.60;20.60;101585.00;;;;5043673;28;20049;-72
2022/05/14 04:29:29;;;;;;;5.45;1.08;;;21.40;44.60;20.60;101591.00;;;;5046279;28;20419;-72
2022/05/14 04:32:15;;;;;;;2.70;1.30;;;21.40;44.50;20.60;101594.00;;;;5037443;28;20088;-72
2022/05/14 04:35:01;;;;;;;2.58;1.35;;;21.50;44.60;20.60;101585.00;;;;5040772;28;20033;-72
2022/05/14 04:37:47;;;;;;;2.47;1.23;;;21.50;44.60;20.60;101588.00;;;;5019331;28;20037;-72
2022/05/14 04:40:34;;;;;;;5.22;1.20;;;21.50;44.60;20.60;101587.00;;;;5038003;28;20478;-72
2022/05/14 04:43:20;;;;;;;4.00;1.35;;;21.50;44.60;20.60;101598.00;;;;5013021;28;20037;-72
2022/05/14 04:46:09;;;;;;;4.80;1.10;;;21.50;44.60;20.60;101608.00;;;;5035102;28;20475;-72
2022/05/14 04:48:55;;;;;;;4.60;1.30;;;21.40;44.60;20.60;101604.00;;;;5021444;28;20505;-72
2022/05/14 04:51:41;;;;;;;4.00;1.42;;;21.40;44.60;20.60;101605.00;;;;5008611;28;20051;-72
2022/05/14 04:54:27;;;;;;;5.15;1.33;;;21.40;44.60;20.60;101608.00;;;;5041630;28;20041;-72
2022/05/14 04:57:13;;;;;;;2.53;1.40;;;21.50;44.70;20.60;101619.00;;;;5038461;28;20483;-72
2022/05/14 04:59:59;;;;;;;3.33;1.33;;;21.50;44.70;20.60;101619.00;;;;5022645;28;20490;-72
2022/05/14 05:05:55;;;;;;;2.47;1.20;;;21.50;44.70;20.60;101623.00;;;;5036094;28;20037;-72
2022/05/14 05:08:42;;;;;;;4.15;1.13;;;21.50;44.70;20.60;101627.00;;;;5018975;28;20532;-72
2022/05/14 05:11:28;;;;;;;4.67;1.30;;;21.50;44.70;20.60;101625.00;;;;5025427;28;20041;-72
2022/05/14 05:14:14;;;;;;;3.10;1.13;;;21.50;44.70;20.60;101637.00;;;;5037806;28;20037;-73
2022/05/14 05:17:01;;;;;;;4.55;1.95;;;21.50;44.70;20.60;101633.00;;;;5037200;28;20044;-72
2022/05/14 05:19:47;;;;;;;3.72;1.10;;;21.50;44.70;20.60;101638.00;;;;5022800;28;20049;-72
2022/05/14 05:22:33;;;;;;;6.45;1.40;;;21.50;44.70;20.60;101639.00;;;;5039139;28;20048;-72
2022/05/14 05:25:19;;;;;;;4.15;1.50;;;21.50;44.60;20.60;101637.00;;;;5026390;28;20079;-72
2022/05/14 05:28:05;;;;;;;3.10;1.10;;;21.40;44.70;20.60;101643.00;;;;5025686;28;20620;-72
2022/05/14 05:30:51;;;;;;;5.50;1.25;;;21.50;44.70;20.60;101652.00;;;;5035763;28;20037;-72
2022/05/14 05:33:37;;;;;;;2.97;1.05;;;21.50;44.80;20.60;101654.00;;;;5005713;28;20474;-72
2022/05/14 05:36:23;;;;;;;5.63;1.40;;;21.40;44.80;20.60;101654.00;;;;5038528;28;20533;-72
2022/05/14 05:39:10;;;;;;;3.70;1.30;;;21.40;44.70;20.60;101650.00;;;;5023865;28;20053;-72
2022/05/14 05:41:58;;;;;;;5.85;1.25;;;21.50;44.70;20.60;101662.00;;;;5032062;28;20505;-72
2022/05/14 05:44:44;;;;;;;6.10;1.17;;;21.40;44.80;20.60;101655.00;;;;5035476;28;20479;-72
2022/05/14 05:47:30;;;;;;;2.50;1.23;;;21.50;44.70;20.60;101659.00;;;;5037448;28;20041;-72
2022/05/14 05:50:16;;;;;;;4.18;1.70;;;21.40;44.70;20.60;101649.00;;;;5023124;28;20040;-72
2022/05/14 05:53:03;;;;;;;3.03;1.50;;;21.40;44.70;20.60;101653.00;;;;5019260;28;20050;-72
2022/05/14 05:58:53;;;;;;;4.63;1.80;;;21.40;44.70;20.60;101653.00;;;;5036287;28;20041;-72
2022/05/14 06:01:40;;;;;;;4.60;1.55;;;21.50;44.80;20.60;101668.00;;;;5038563;28;20485;-72
2022/05/14 06:04:26;;;;;;;3.63;1.42;;;21.40;44.80;20.60;101658.00;;;;5036068;28;20095;-72
2022/05/14 06:07:12;;;;;;;5.15;2.17;;;21.40;44.70;20.60;101664.00;;;;5037291;28;20045;-72
2022/05/14 06:09:58;;;;;;;3.63;1.70;;;21.40;44.80;20.60;101674.00;;;;5041477;28;20510;-72
2022/05/14 06:12:46;;;;;;;5.88;1.70;;;21.50;44.70;20.60;101683.00;;;;5007579;28;20406;-72
2022/05/14 06:15:32;;;;;;;4.93;1.48;;;21.40;44.80;20.60;101673.00;;;;5045428;28;20425;-72
2022/05/14 06:18:18;;;;;;;7.00;2.78;;;21.50;44.80;20.50;101684.00;;;;5034904;28;20053;-72
2022/05/14 06:21:05;;;;;;;6.90;3.00;;;21.40;44.90;20.50;101679.00;;;;5036561;28;20087;-73
2022/05/14 06:23:51;;;;;;;8.57;3.88;;;21.40;44.90;20.40;101682.00;;;;5037982;28;20483;-73
2022/05/14 06:26:38;;;;;;;11.40;3.38;;;21.40;45.00;20.30;101676.00;;;;5037374;28;20653;-73
2022/05/14 06:29:24;;;;;;;11.38;3.40;;;21.40;45.00;20.20;101677.00;;;;5017576;28;20140;-73
2022/05/14 06:32:10;;;;;;;16.50;4.10;;;21.30;45.10;20.20;101679.00;;;;5034433;28;20037;-72
2022/05/14 06:34:56;;;;;;;14.57;3.80;;;21.30;45.20;20.10;101676.00;;;;5031488;28;20628;-72
2022/05/14 06:37:42;;;;;;;9.45;3.97;;;21.20;45.20;20.10;101675.00;;;;5034925;28;20049;-72
2022/05/14 06:40:28;;;;;;;11.07;3.70;;;21.20;45.50;20.00;101689.00;;;;5033827;28;20501;-72
2022/05/14 06:43:17;;;;;;;12.07;4.03;;;21.10;45.50;20.00;101685.00;;;;5039511;28;20576;-72
2022/05/14 06:46:03;;;;;;;16.90;4.35;;;21.10;45.70;20.00;101688.00;;;;5025284;28;20044;-73
2022/05/14 06:48:49;;;;;;;19.05;6.63;;;21.00;45.80;19.90;101695.00;;;;5038206;28;20049;-72
2022/05/14 06:51:35;;;;;;;27.48;8.80;;;21.00;46.00;19.90;101699.00;;;;5039208;28;20044;-72
2022/05/14 06:54:21;;;;;;;15.60;5.65;;;21.00;46.30;19.80;101697.00;;;;5019485;28;20068;-72
2022/05/14 06:57:07;;;;;;;12.18;4.50;;;20.90;46.40;19.70;101704.00;;;;5021559;28;20037;-72
2022/05/14 06:59:54;;;;;;;18.90;6.30;;;20.80;46.60;19.60;101710.00;;;;5024520;28;20860;-72
2022/05/14 07:02:40;;;;;;;13.65;5.30;;;20.70;46.90;19.50;101706.00;;;;5024905;28;20499;-72
2022/05/14 07:08:31;;;;;;;15.30;5.18;;;20.40;47.10;19.40;101708.00;;;;5036789;28;20137;-72
2022/05/14 07:11:18;;;;;;;16.10;5.45;;;20.20;47.60;19.40;101711.00;;;;5039260;28;20052;-72
2022/05/14 07:14:05;;;;;;;13.45;4.78;;;20.30;48.10;19.50;101710.00;;;;5039489;28;20155;-72
2022/05/14 07:16:52;;;;;;;16.60;5.53;;;20.20;48.10;19.50;101714.00;;;;5023956;28;20087;-72
2022/05/14 07:19:38;;;;;;;58.15;25.15;;;20.10;48.30;19.50;101708.00;;;;5022408;28;20051;-72
2022/05/14 07:22:24;;;;;;;54.50;23.27;;;20.20;48.30;19.40;101715.00;;;;5016996;28;20036;-72
2022/05/14 07:25:10;;;;;;;34.47;14.07;;;20.20;48.30;19.50;101719.00;;;;5035120;28;20037;-72
2022/05/14 07:27:58;;;;;;;28.58;9.35;;;20.20;48.50;19.50;101724.00;;;;5034719;28;20042;-72
2022/05/14 07:30:44;;;;;;;33.10;15.15;;;20.20;48.50;19.50;101723.00;;;;5045200;28;20146;-74
2022/05/14 07:33:30;;;;;;;27.40;12.20;;;20.20;48.40;19.50;101718.00;;;;5022316;28;20042;-74
2022/05/14 07:36:18;;;;;;;26.88;7.38;;;20.20;48.60;19.60;101712.00;;;;5001802;28;20468;-74
2022/05/14 07:39:04;;;;;;;25.75;9.23;;;20.20;48.30;19.60;101715.00;;;;5016505;28;20041;-74
2022/05/14 07:41:53;;;;;;;30.35;10.50;;;20.30;48.50;19.70;101723.00;;;;5024371;28;20132;-73
2022/05/14 07:44:59;;;;;;;19.05;6.43;;;20.30;48.40;19.70;101723.00;;;;5039339;28;20052;-73
2022/05/14 07:47:45;;;;;;;24.80;6.93;;;20.40;48.10;19.70;101723.00;;;;5042520;28;20661;-74
2022/05/14 07:50:32;;;;;;;30.60;7.38;;;20.50;48.20;19.80;101728.00;;;;5029030;28;20064;-75
2022/05/14 07:53:18;;;;;;;13.27;4.35;;;20.50;47.90;19.80;101730.00;;;;5025991;28;20064;-73
2022/05/14 07:56:05;;;;;;;12.98;5.13;;;20.50;47.70;19.80;101728.00;;;;5026871;28;20045;-73
2022/05/14 07:58:51;;;;;;;15.15;4.32;;;20.60;47.60;19.80;101719.00;;;;5025417;28;20495;-74
2022/05/14 08:01:40;;;;;;;14.73;5.18;;;20.70;47.50;19.80;101723.00;;;;5040298;28;20057;-74
2022/05/14 08:04:26;;;;;;;16.38;4.65;;;20.70;47.60;19.90;101726.00;;;;5024569;28;20049;-74
2022/05/14 08:07:12;;;;;;;19.70;4.78;;;20.80;47.60;19.90;101714.00;;;;5036128;28;20040;-74
2022/05/14 08:09:58;;;;;;;26.33;7.35;;;20.80;47.80;19.90;101722.00;;;;5037013;28;20048;-75
2022/05/14 08:12:47;;;;;;;18.20;4.30;;;20.80;47.70;20.00;101724.00;;;;5020851;28;20180;-73
2022/05/14 08:15:33;;;;;;;17.13;4.72;;;20.90;47.40;20.00;101727.00;;;;5020088;28;20455;-73
2022/05/14 08:18:19;;;;;;;11.45;4.38;;;20.90;47.20;20.00;101723.00;;;;5036458;28;20040;-73
2022/05/14 08:27:14;;;;;;;12.68;5.18;;;21.00;47.20;20.00;101712.00;;;;5039995;28;20041;-73
2022/05/14 08:30:00;;;;;;;16.40;4.50;;;21.00;47.30;20.00;101715.00;;;;5026500;28;20045;-73
2022/05/14 08:32:46;;;;;;;8.88;3.95;;;21.00;47.20;20.00;101714.00;;;;5043376;28;20466;-73
2022/05/14 08:35:32;;;;;;;14.75;4.65;;;21.10;47.30;20.00;101708.00;;;;5028811;28;20040;-72
2022/05/14 08:38:18;;;;;;;12.68;4.25;;;21.10;47.10;20.00;101713.00;;;;5040586;28;20037;-72
2022/05/14 08:41:04;;;;;;;15.70;4.60;;;21.00;46.80;20.00;101709.00;;;;5035222;28;20094;-71
2022/05/14 08:43:58;;;;;;;16.05;4.35;;;21.10;46.90;20.00;101715.00;;;;5039595;28;20528;-72
2022/05/14 08:46:44;;;;;;;10.95;3.50;;;21.10;47.00;20.00;101711.00;;;;5027011;28;20050;-72
2022/05/14 08:49:33;;;;;;;12.23;3.88;;;21.10;46.80;20.00;101714.00;;;;5029049;28;20041;-73
2022/05/14 08:52:26;;;;;;;17.83;4.82;;;21.10;46.80;20.00;101711.00;;;;5025276;28;20048;-73
2022/05/14 08:55:15;;;;;;;14.38;5.18;;;21.10;46.50;20.00;101718.00;;;;5047840;28;20069;-73
2022/05/14 08:58:14;;;;;;;12.15;4.00;;;21.10;46.50;20.00;101702.00;;;;5011697;28;20152;-73
2022/05/14 09:01:00;;;;;;;;;;;21.10;46.40;20.00;101712.00;;;;5016222;28;20036;-73
2022/05/14 09:03:46;;;;;;;14.15;4.60;;;21.10;46.40;20.00;101709.00;;;;5036796;28;19913;-73
2022/05/14 09:06:32;;;;;;;14.93;4.57;;;21.10;46.40;20.00;101718.00;;;;5028525;28;20040;-73
2022/05/14 09:09:19;;;;;;;14.18;3.92;;;21.10;46.60;20.00;101717.00;;;;5039579;28;20041;-73
2022/05/14 09:12:08;;;;;;;11.13;3.42;;;21.10;46.50;20.00;101710.00;;;;5040668;28;20128;-73
2022/05/14 09:14:58;;;;;;;12.02;3.92;;;21.10;46.40;20.00;101708.00;;;;5025408;28;20067;-73
2022/05/14 09:17:44;;;;;;;13.40;4.00;;;21.20;47.00;20.00;101712.00;;;;5013086;28;20106;-73
2022/05/14 09:20:30;;;;;;;15.15;3.95;;;21.10;46.40;20.10;101721.00;;;;5022520;28;20064;-72
2022/05/14 09:23:39;;;;;;;12.35;3.55;;;21.10;46.20;20.10;101718.00;;;;5012035;28;20041;-72
2022/05/14 09:26:37;;;;;;;13.60;4.35;;;21.20;46.10;20.10;101712.00;;;;5030226;28;20052;-72
2022/05/14 09:29:28;;;;;;;;;;;21.20;46.10;20.10;101709.00;;;;5021738;28;20518;-72
2022/05/14 09:32:17;;;;;;;9.60;3.15;;;21.30;46.20;20.10;101714.00;;;;5036437;28;19916;-72
2022/05/14 09:35:23;;;;;;;11.98;3.60;;;21.30;46.20;20.10;101712.00;;;;5034177;28;20045;-73
2022/05/14 09:38:18;;;;;;;12.10;4.72;;;21.20;46.00;20.20;101720.00;;;;5034707;28;20056;-73
2022/05/14 09:41:37;;;;;;;15.35;3.72;;;21.20;45.90;20.20;101707.00;;;;5024134;28;20125;-72
2022/05/14 09:44:45;;;;;;;14.90;3.80;;;21.30;46.00;20.20;101708.00;;;;5016802;28;20053;-74
2022/05/14 09:47:33;;;;;;;7.55;2.83;;;21.30;46.50;20.20;101720.00;;;;5021552;28;20052;-73
2022/05/14 09:50:40;;;;;;;12.27;2.88;;;21.30;45.80;20.20;101718.00;;;;5027987;28;20068;-74
2022/05/14 09:53:46;;;;;;;9.07;3.03;;;21.30;45.80;20.30;101717.00;;;;5002941;28;20475;-74
2022/05/14 09:56:58;;;;;;;13.57;3.65;;;21.40;45.80;20.30;101718.00;;;;5027444;28;20211;-74
2022/05/14 09:59:56;;;;;;;11.07;3.30;;;21.40;45.80;20.30;101715.00;;;;5022089;28;20076;-74
2022/05/14 10:03:06;;;;;;;15.68;3.67;;;21.50;45.90;20.40;101725.00;;;;5024115;28;20055;-74
2022/05/14 10:06:17;;;;;;;14.73;3.65;;;21.50;45.90;20.40;101725.00;;;;5019751;28;20045;-74
2022/05/14 10:09:15;;;;;;;9.82;3.70;;;21.50;45.60;20.40;101723.00;;;;5024070;28;20041;-74
2022/05/14 10:12:20;;;;;;;9.75;2.75;;;21.50;45.80;20.40;101717.00;;;;5021784;28;20474;-72
2022/05/14 10:15:43;;;;;;;15.10;3.67;;;21.50;45.20;20.40;101725.00;;;;5016479;28;20061;-72
2022/05/14 10:18:50;;;;;;;12.32;3.00;;;21.50;45.00;20.40;101725.00;;;;5019661;28;20036;-75
2022/05/14 10:21:58;;;;;;;12.73;3.65;;;21.60;45.30;20.40;101731.00;;;;5037808;28;20083;-73
2022/05/14 10:28:30;;;;;;;11.55;2.67;;;21.60;45.60;20.50;101719.00;;;;5017971;28;20455;-72
2022/05/14 10:31:41;;;;;;;9.30;2.80;;;21.60;45.20;20.50;101722.00;;;;5001833;28;20430;-73
2022/05/14 10:34:52;;;;;;;9.30;2.67;;;21.60;45.20;20.50;101714.00;;;;5023296;28;20147;-73
2022/05/14 10:37:54;;;;;;;10.00;2.75;;;21.60;45.20;20.50;101722.00;;;;5041541;28;20095;-73
2022/05/14 10:40:44;;;;;;;14.85;3.10;;;21.70;45.30;20.50;101716.00;;;;5028333;28;20098;-73
2022/05/14 10:44:09;;;;;;;8.32;2.28;;;21.70;45.30;20.60;101716.00;;;;5020847;28;20282;-73
2022/05/14 10:46:59;;;;;;;12.38;2.95;;;21.70;45.50;20.60;101720.00;;;;5021200;28;20045;-73
2022/05/14 10:50:12;;;;;;;11.77;3.15;;;21.70;45.30;20.60;101722.00;;;;5027689;28;20041;-73
2022/05/14 10:52:58;;;;;;;7.93;3.00;;;21.70;45.50;20.60;101728.00;;;;5011375;28;20044;-71
2022/05/14 10:56:08;;;;;;;10.80;3.03;;;21.80;45.10;20.60;101715.00;;;;5023753;28;20387;-71
2022/05/14 10:59:11;;;;;;;11.55;3.40;;;21.80;45.00;20.70;101723.00;;;;5012762;28;20514;-71
2022/05/14 11:01:57;;;;;;;7.95;2.60;;;21.80;44.90;20.70;101720.00;;;;5027054;28;20188;-73
2022/05/14 11:04:47;;;;;;;9.98;2.80;;;21.90;44.80;20.70;101728.00;;;;5033540;28;20041;-73
2022/05/14 11:07:42;;;;;;;11.30;3.22;;;21.90;45.00;20.80;101722.00;;;;5020921;28;20326;-73
2022/05/14 11:10:28;;;;;;;12.90;3.30;;;21.90;45.00;20.80;101718.00;;;;5012863;28;20170;-72
2022/05/14 11:13:24;;;;;;;12.30;3.28;;;21.90;44.90;20.80;101724.00;;;;5031043;28;20482;-72
2022/05/14 11:16:12;;;;;;;10.77;2.80;;;21.90;44.90;20.80;101720.00;;;;5005533;28;20091;-73
2022/05/14 11:19:00;;;;;;;11.43;2.90;;;21.90;44.80;20.80;101730.00;;;;4987917;28;20609;-73
2022/05/14 11:21:46;;;;;;;13.00;2.78;;;21.90;44.90;20.80;101728.00;;;;5018347;28;20040;-72
2022/05/14 11:24:40;;;;;;;12.73;3.08;;;22.00;44.90;20.80;101729.00;;;;5018895;28;20116;-73
2022/05/14 11:27:40;;;;;;;15.68;2.80;;;22.00;44.80;20.80;101730.00;;;;5019874;28;20042;-73
2022/05/14 11:30:42;;;;;;;10.75;2.65;;;22.00;44.80;20.80;101728.00;;;;5018360;28;20124;-73
2022/05/14 11:33:30;;;;;;;7.20;2.45;;;22.00;44.90;20.80;101723.00;;;;5021111;28;20045;-73
2022/05/14 11:36:29;;;;;;;9.60;2.28;;;22.00;44.80;20.80;101719.00;;;;5019456;28;20357;-73
2022/05/14 11:39:24;;;;;;;7.18;2.30;;;22.00;44.80;20.80;101720.00;;;;5000572;28;20474;-73
2022/05/14 11:42:23;;;;;;;9.57;2.42;;;22.00;44.90;20.80;101719.00;;;;5018726;28;20474;-73
2022/05/14 11:45:23;;;;;;;8.43;2.35;;;22.00;44.80;20.80;101725.00;;;;5035936;28;20045;-73
2022/05/14 11:48:22;;;;;;;9.85;2.67;;;22.10;45.60;20.80;101721.00;;;;5014669;28;20379;-73
2022/05/14 11:51:29;;;;;;;8.82;2.38;;;22.00;44.90;20.80;101726.00;;;;5024397;28;20196;-73
2022/05/14 11:54:26;;;;;;;8.40;2.50;;;22.00;44.90;20.80;101725.00;;;;5014305;28;20505;-73
2022/05/14 11:57:22;;;;;;;10.48;2.60;;;22.00;45.30;20.80;101723.00;;;;4996450;28;20122;-73
2022/05/14 12:00:13;;;;;;;15.75;3.72;;;22.00;44.90;20.80;101717.00;;;;4994710;28;20182;-73
2022/05/14 12:03:33;;;;;;;9.45;2.22;;;22.00;44.90;20.80;101726.00;;;;5015828;28;20038;-73
2022/05/14 12:06:49;;;;;;;12.32;2.75;;;22.00;44.70;20.80;101728.00;;;;5021445;28;20064;-73
2022/05/14 12:09:56;;;;;;;12.40;3.25;;;22.00;44.60;20.80;101725.00;;;;5036875;28;20080;-73
2022/05/14 12:13:13;;;;;;;9.48;2.60;;;22.00;44.60;20.80;101720.00;;;;5033757;28;20045;-74
2022/05/14 12:16:00;;;;;;;9.20;2.42;;;22.00;44.70;20.80;101727.00;;;;5016824;28;20047;-73
2022/05/14 12:18:46;;;;;;;10.25;2.15;;;22.00;44.70;20.80;101721.00;;;;5035469;28;20064;-73
2022/05/14 12:21:32;;;;;;;13.43;3.20;;;22.00;44.80;20.90;101722.00;;;;5042224;28;20098;-74
2022/05/14 12:24:26;;;;;;;9.32;2.30;;;22.10;44.50;20.90;101720.00;;;;5028824;28;20049;-74
2022/05/14 12:27:17;;;;;;;13.75;2.63;;;22.00;44.10;20.90;101723.00;;;;5034722;28;20033;-73
2022/05/14 12:33:25;;;;;;;9.70;2.80;;;22.10;44.00;20.90;101715.00;;;;5028443;28;20439;-75
2022/05/14 12:36:11;;;;;;;7.10;2.15;;;22.10;44.20;20.90;101707.00;;;;5027596;28;20040;-74
2022/05/14 12:38:57;;;;;;;9.57;2.50;;;22.10;44.20;20.90;101714.00;;;;5037314;28;20057;-74
2022/05/14 12:41:46;;;;;;;9.00;2.20;;;22.10;43.80;20.90;101706.00;;;;5038593;28;20079;-73
2022/05/14 12:44:41;;;;;;;16.17;2.70;;;22.20;43.70;21.00;101701.00;;;;5011833;28;20044;-74
2022/05/14 12:47:29;;;;;;;9.77;2.40;;;22.20;43.50;21.00;101696.00;;;;5027478;28;20049;-74
2022/05/14 12:50:21;;;;;;;9.45;2.53;;;22.20;42.90;21.10;101695.00;;;;5025904;28;20128;-73